createdAt,value
2019-02-17T00:00:57.507Z,75.98
2019-02-17T00:01:56.087Z,76.61
2019-02-17T00:03:27.670Z,76.09
2019-02-17T00:04:27.673Z,76.09
2019-02-17T00:05:59.367Z,76.71
2019-02-17T00:06:58.329Z,76.09
2019-02-17T00:08:30.020Z,76.19
2019-02-17T00:09:28.083Z,75.88
2019-02-17T00:10:58.802Z,75.88
2019-02-17T00:11:58.779Z,75.67
2019-02-17T00:13:29.449Z,76.09
2019-02-17T00:14:29.430Z,76.29
2019-02-17T00:16:01.513Z,76.61
2019-02-17T00:17:01.081Z,76.85
2019-02-17T00:18:31.758Z,76.81
2019-02-17T00:19:32.653Z,77.16
2019-02-17T00:21:02.471Z,77.37
2019-02-17T00:22:02.472Z,76.85
2019-02-17T00:23:34.021Z,76.89
2019-02-17T00:24:33.992Z,77.40
2019-02-17T00:26:06.179Z,77.20
2019-02-17T00:27:03.739Z,77.20
2019-02-17T00:28:34.465Z,77.06
2019-02-17T00:29:35.309Z,76.99
2019-02-17T00:31:06.015Z,77.40
2019-02-17T00:32:55.637Z,78.55
2019-02-17T00:33:56.127Z,78.65
2019-02-17T00:35:26.309Z,78.55
2019-02-17T00:36:26.768Z,78.34
2019-02-17T00:37:57.549Z,78.27
2019-02-17T00:38:57.531Z,78.17
2019-02-17T00:40:28.227Z,78.27
2019-02-17T00:41:28.241Z,78.17
2019-02-17T00:42:58.892Z,78.69
2019-02-17T00:43:59.763Z,78.83
2019-02-17T00:45:29.967Z,78.72
2019-02-17T00:46:29.523Z,78.52
2019-02-17T00:48:01.107Z,78.83
2019-02-17T00:49:00.197Z,78.93
2019-02-17T00:50:32.814Z,78.93
2019-02-17T00:51:32.754Z,79.03
2019-02-17T00:53:02.401Z,78.93
2019-02-17T00:54:01.974Z,79.55
2019-02-17T00:55:33.554Z,79.35
2019-02-17T00:56:33.554Z,79.45
2019-02-17T00:58:05.221Z,79.69
2019-02-17T00:59:10.045Z,80.01
2019-02-17T01:00:37.397Z,80.11
2019-02-17T01:01:35.980Z,80.84
2019-02-17T01:03:06.134Z,80.84
2019-02-17T01:04:06.104Z,80.98
2019-02-17T01:05:36.791Z,80.88
2019-02-17T01:07:26.887Z,81.60
2019-02-17T01:08:26.873Z,81.26
2019-02-17T01:10:00.449Z,81.15
2019-02-17T01:11:48.713Z,80.74
2019-02-17T01:13:39.724Z,80.53
2019-02-17T01:14:39.726Z,80.63
2019-02-17T01:16:10.553Z,80.74
2019-02-17T01:17:10.501Z,81.15
2019-02-17T01:18:41.592Z,81.15
2019-02-17T01:19:41.174Z,80.84
2019-02-17T01:21:12.743Z,80.84
2019-02-17T01:22:11.864Z,81.26
2019-02-17T01:23:42.984Z,80.74
2019-02-17T01:24:42.583Z,80.88
2019-02-17T01:26:13.225Z,81.15
2019-02-17T01:28:06.232Z,81.05
2019-02-17T01:29:04.327Z,81.09
2019-02-17T01:30:35.004Z,81.81
2019-02-17T01:31:34.982Z,81.40
2019-02-17T01:33:06.078Z,81.50
2019-02-17T01:34:05.659Z,81.71
2019-02-17T01:35:38.196Z,81.60
2019-02-17T01:36:39.791Z,82.03
2019-02-17T01:38:11.762Z,81.71
2019-02-17T01:39:09.879Z,81.81
2019-02-17T01:40:44.413Z,81.81
2019-02-17T01:41:40.517Z,81.92
2019-02-17T01:43:11.602Z,81.81
2019-02-17T01:44:12.083Z,81.40
2019-02-17T01:45:44.277Z,81.19
2019-02-17T01:46:42.870Z,81.81
2019-02-17T01:48:13.639Z,81.40
2019-02-17T01:49:13.564Z,81.40
2019-02-17T01:50:44.269Z,81.29
2019-02-17T01:51:44.224Z,81.29
2019-02-17T01:53:14.917Z,81.50
2019-02-17T01:55:05.933Z,81.50
2019-02-17T01:56:05.027Z,81.40
2019-02-17T01:57:35.752Z,80.84
2019-02-17T01:58:35.735Z,80.98
2019-02-17T02:00:08.305Z,81.19
2019-02-17T02:01:07.444Z,80.88
2019-02-17T02:02:39.031Z,80.98
2019-02-17T02:03:38.117Z,81.40
2019-02-17T02:05:11.714Z,81.50
2019-02-17T02:06:09.875Z,81.75
2019-02-17T02:07:40.601Z,81.65
2019-02-17T02:08:40.564Z,81.75
2019-02-17T02:10:11.278Z,81.85
2019-02-17T02:11:11.243Z,81.54
2019-02-17T02:12:42.814Z,82.68
2019-02-17T02:13:41.938Z,82.72
2019-02-17T02:15:13.489Z,82.37
2019-02-17T02:16:12.578Z,82.48
2019-02-17T02:17:44.168Z,83.35
2019-02-17T02:18:43.240Z,83.35
2019-02-17T02:20:13.966Z,83.45
2019-02-17T02:21:14.812Z,83.04
2019-02-17T02:22:46.509Z,83.56
2019-02-17T02:23:46.495Z,83.35
2019-02-17T02:25:17.615Z,83.25
2019-02-17T02:26:16.735Z,83.56
2019-02-17T02:27:48.793Z,83.25
2019-02-17T02:28:47.422Z,83.76
2019-02-17T02:30:18.139Z,83.25
2019-02-17T02:31:19.012Z,83.35
2019-02-17T02:32:49.709Z,83.35
2019-02-17T02:34:38.964Z,83.87
2019-02-17T02:35:39.790Z,83.87
2019-02-17T02:37:09.599Z,84.12
2019-02-17T02:38:10.490Z,84.43
2019-02-17T02:39:41.254Z,84.28
2019-02-17T02:40:41.241Z,84.39
2019-02-17T02:42:12.915Z,84.53
2019-02-17T02:43:12.881Z,84.43
2019-02-17T02:44:43.570Z,84.01
2019-02-17T02:45:44.454Z,84.12
2019-02-17T02:47:15.609Z,84.12
2019-02-17T02:49:03.803Z,84.53
2019-02-17T02:50:03.789Z,84.53
2019-02-17T02:51:34.809Z,84.60
2019-02-17T02:52:33.901Z,84.53
2019-02-17T02:54:04.615Z,83.80
2019-02-17T02:55:04.600Z,84.08
2019-02-17T02:56:35.321Z,84.33
2019-02-17T02:57:36.190Z,84.22
2019-02-17T02:59:05.969Z,84.43
2019-02-17T03:00:05.938Z,84.22
2019-02-17T03:01:36.687Z,83.91
2019-02-17T03:02:36.642Z,84.33
2019-02-17T03:04:07.773Z,84.12
2019-02-17T03:05:07.312Z,84.22
2019-02-17T03:06:38.877Z,83.59
2019-02-17T03:07:37.987Z,83.80
2019-02-17T03:09:08.652Z,83.59
2019-02-17T03:10:08.655Z,83.70
2019-02-17T03:11:40.242Z,84.22
2019-02-17T03:12:40.205Z,84.12
2019-02-17T03:14:10.917Z,84.01
2019-02-17T03:15:10.951Z,84.12
2019-02-17T03:16:41.055Z,84.12
2019-02-17T03:17:40.612Z,84.01
2019-02-17T03:19:12.218Z,83.91
2019-02-17T03:20:11.272Z,84.12
2019-02-17T03:21:41.952Z,84.26
2019-02-17T03:22:41.929Z,84.47
2019-02-17T03:24:12.074Z,84.36
2019-02-17T03:25:12.029Z,84.57
2019-02-17T03:26:43.598Z,84.78
2019-02-17T03:27:43.690Z,84.99
2019-02-17T03:29:14.372Z,84.99
2019-02-17T03:31:05.382Z,85.10
2019-02-17T03:32:04.453Z,84.88
2019-02-17T03:33:36.134Z,85.10
2019-02-17T03:35:26.259Z,85.10
2019-02-17T03:36:26.240Z,84.99
2019-02-17T03:37:57.845Z,85.10
2019-02-17T03:38:57.832Z,84.88
2019-02-17T03:40:29.498Z,85.10
2019-02-17T03:41:28.559Z,85.03
2019-02-17T03:43:02.163Z,85.03
2019-02-17T03:43:59.254Z,84.88
2019-02-17T03:45:29.979Z,85.20
2019-02-17T03:46:29.934Z,85.20
2019-02-17T03:48:00.634Z,85.13
2019-02-17T03:49:00.616Z,84.92
2019-02-17T03:50:32.688Z,85.97
2019-02-17T03:51:31.321Z,86.18
2019-02-17T03:53:02.042Z,85.65
2019-02-17T03:54:01.996Z,86.07
2019-02-17T03:55:33.104Z,85.86
2019-02-17T03:56:32.662Z,86.07
2019-02-17T03:58:03.355Z,85.76
2019-02-17T03:59:03.326Z,86.38
2019-02-17T04:00:34.004Z,85.13
2019-02-17T04:01:33.986Z,85.34
2019-02-17T04:03:09.601Z,85.55
2019-02-17T04:04:04.646Z,86.49
2019-02-17T04:05:35.338Z,86.07
2019-02-17T04:06:35.322Z,85.90
2019-02-17T04:08:06.046Z,85.80
2019-02-17T04:09:06.908Z,85.86
2019-02-17T04:10:37.731Z,86.38
2019-02-17T04:11:38.570Z,85.97
2019-02-17T04:13:09.779Z,85.80
2019-02-17T04:14:09.397Z,85.97
2019-02-17T04:15:39.498Z,85.80
2019-02-17T04:16:39.484Z,86.00
2019-02-17T04:18:11.203Z,86.00
2019-02-17T04:20:01.294Z,85.97
2019-02-17T04:21:02.192Z,86.21
2019-02-17T04:22:33.348Z,86.28
2019-02-17T04:23:32.032Z,86.38
2019-02-17T04:25:02.662Z,86.74
2019-02-17T04:26:03.535Z,86.94
2019-02-17T04:27:34.325Z,87.68
2019-02-17T04:28:35.208Z,87.47
2019-02-17T04:30:05.974Z,86.94
2019-02-17T04:31:05.952Z,87.78
2019-02-17T04:32:36.701Z,87.88
2019-02-17T04:33:36.677Z,87.78
2019-02-17T04:35:08.244Z,86.94
2019-02-17T04:36:07.299Z,87.47
2019-02-17T04:37:38.025Z,86.84
2019-02-17T04:38:37.960Z,86.63
2019-02-17T04:40:09.526Z,86.63
2019-02-17T04:41:08.605Z,86.63
2019-02-17T04:42:41.194Z,86.59
2019-02-17T04:43:40.304Z,86.84
2019-02-17T04:45:11.898Z,86.84
2019-02-17T04:46:11.879Z,86.84
2019-02-17T04:47:42.656Z,86.53
2019-02-17T04:48:42.645Z,85.80
2019-02-17T04:50:13.447Z,85.65
2019-02-17T04:51:14.202Z,86.00
2019-02-17T04:52:44.095Z,86.07
2019-02-17T04:53:44.066Z,86.00
2019-02-17T04:55:16.642Z,85.69
2019-02-17T04:56:15.718Z,86.00
2019-02-17T04:57:47.296Z,86.07
2019-02-17T04:58:46.367Z,86.00
2019-02-17T05:00:18.964Z,86.53
2019-02-17T05:01:17.080Z,86.43
2019-02-17T05:02:48.671Z,86.94
2019-02-17T05:03:47.749Z,86.94
2019-02-17T05:05:19.316Z,87.68
2019-02-17T05:06:19.310Z,87.37
2019-02-17T05:07:49.132Z,87.26
2019-02-17T05:08:49.097Z,87.93
2019-02-17T05:10:19.245Z,88.39
2019-02-17T05:12:09.352Z,89.74
2019-02-17T05:13:09.318Z,90.16
2019-02-17T05:14:40.062Z,90.37
2019-02-17T05:15:40.018Z,90.16
2019-02-17T05:17:10.720Z,90.01
2019-02-17T05:18:10.698Z,89.39
2019-02-17T05:19:41.425Z,89.39
2019-02-17T05:20:42.261Z,88.55
2019-02-17T05:22:13.069Z,88.55
2019-02-17T05:23:13.060Z,89.18
2019-02-17T05:24:44.622Z,88.41
2019-02-17T05:25:43.708Z,88.13
2019-02-17T05:27:15.401Z,87.61
2019-02-17T05:28:15.364Z,87.88
2019-02-17T05:29:46.117Z,87.68
2019-02-17T05:30:53.005Z,87.78
2019-02-17T05:32:17.787Z,87.71
2019-02-17T05:33:18.675Z,87.68
2019-02-17T05:34:48.505Z,88.03
2019-02-17T05:35:48.472Z,87.88
2019-02-17T05:37:20.037Z,87.15
2019-02-17T05:38:19.128Z,87.30
2019-02-17T05:39:51.694Z,87.61
2019-02-17T05:40:50.776Z,87.88
2019-02-17T05:42:21.483Z,87.88
2019-02-17T05:43:22.351Z,87.68
2019-02-17T05:44:52.130Z,88.24
2019-02-17T05:45:52.149Z,88.24
2019-02-17T05:47:22.801Z,87.93
2019-02-17T05:48:22.776Z,87.82
2019-02-17T05:49:54.791Z,87.93
2019-02-17T05:50:52.907Z,88.03
2019-02-17T05:52:23.571Z,87.82
2019-02-17T05:53:23.590Z,87.71
2019-02-17T05:54:54.259Z,88.13
2019-02-17T05:55:54.238Z,88.45
2019-02-17T05:57:26.312Z,88.13
2019-02-17T05:58:24.890Z,88.24
2019-02-17T05:59:55.017Z,89.32
2019-02-17T06:01:03.445Z,89.22
2019-02-17T06:02:27.078Z,89.32
2019-02-17T06:03:26.667Z,89.53
2019-02-17T06:04:57.351Z,89.43
2019-02-17T06:05:57.312Z,89.22
2019-02-17T06:07:28.042Z,89.74
2019-02-17T06:08:28.025Z,89.95
2019-02-17T06:09:59.583Z,90.01
2019-02-17T06:10:58.669Z,89.84
2019-02-17T06:12:29.381Z,89.70
2019-02-17T06:13:29.369Z,89.49
2019-02-17T06:15:00.937Z,89.39
2019-02-17T06:16:00.029Z,89.43
2019-02-17T06:17:32.594Z,89.18
2019-02-17T06:18:30.740Z,89.43
2019-02-17T06:20:01.379Z,89.28
2019-02-17T06:21:01.365Z,88.87
2019-02-17T06:22:34.937Z,88.24
2019-02-17T06:23:32.925Z,88.45
2019-02-17T06:25:02.730Z,88.34
2019-02-17T06:26:02.712Z,88.03
2019-02-17T06:27:33.419Z,87.05
2019-02-17T06:28:34.277Z,87.05
2019-02-17T06:30:04.952Z,88.13
2019-02-17T06:31:13.983Z,88.49
2019-02-17T06:32:35.740Z,88.76
2019-02-17T06:33:36.609Z,88.55
2019-02-17T06:35:07.389Z,88.24
2019-02-17T06:36:07.380Z,88.34
2019-02-17T06:37:38.144Z,87.99
2019-02-17T06:38:38.069Z,88.45
2019-02-17T06:40:08.753Z,87.88
2019-02-17T06:41:08.719Z,87.78
2019-02-17T06:42:39.740Z,87.26
2019-02-17T06:43:38.829Z,87.43
2019-02-17T06:45:09.501Z,86.43
2019-02-17T06:46:09.473Z,86.91
2019-02-17T06:47:39.609Z,86.07
2019-02-17T06:48:39.616Z,86.13
2019-02-17T06:50:10.260Z,86.35
2019-02-17T06:51:10.225Z,86.35
2019-02-17T06:52:40.977Z,84.99
2019-02-17T06:53:40.943Z,85.10
2019-02-17T06:55:11.615Z,85.30
2019-02-17T06:56:11.594Z,84.92
2019-02-17T06:57:42.691Z,86.13
2019-02-17T06:58:42.338Z,85.41
2019-02-17T07:00:12.991Z,84.99
2019-02-17T07:01:12.969Z,85.10
2019-02-17T07:02:43.711Z,84.53
2019-02-17T07:03:43.693Z,84.64
2019-02-17T07:05:14.429Z,84.43
2019-02-17T07:06:14.413Z,84.74
2019-02-17T07:07:45.096Z,85.16
2019-02-17T07:08:45.063Z,85.10
2019-02-17T07:10:15.771Z,84.95
2019-02-17T07:11:15.766Z,85.05
2019-02-17T07:12:46.456Z,84.50
2019-02-17T07:13:46.429Z,84.60
2019-02-17T07:14:46.441Z,83.97
2019-02-17T07:15:46.401Z,84.04
2019-02-17T07:16:46.395Z,83.58
2019-02-17T07:17:46.383Z,83.37
2019-02-17T07:18:46.391Z,82.30
2019-02-17T07:19:46.369Z,81.43
2019-02-17T07:20:46.373Z,80.63
2019-02-17T07:21:46.339Z,78.92
2019-02-17T07:22:46.329Z,78.37
2019-02-17T07:23:46.323Z,77.06
2019-02-17T07:24:46.308Z,75.78
2019-02-17T07:25:46.317Z,73.98
2019-02-17T07:26:46.293Z,72.98
2019-02-17T07:27:46.277Z,70.87
2019-02-17T07:28:46.267Z,69.81
2019-02-17T07:29:46.263Z,68.64
2019-02-17T07:30:46.243Z,67.88
2019-02-17T07:31:46.247Z,67.54
2019-02-17T07:32:46.221Z,65.76
2019-02-17T07:33:46.215Z,65.52
2019-02-17T07:34:46.212Z,64.80
2019-02-17T07:36:16.949Z,64.25
2019-02-17T07:37:19.221Z,63.71
2019-02-17T07:38:48.665Z,63.19
2019-02-17T07:39:48.596Z,63.74
2019-02-17T07:41:19.593Z,63.95
2019-02-17T07:42:19.543Z,63.22
2019-02-17T07:43:50.231Z,62.75
2019-02-17T07:44:50.195Z,61.93
2019-02-17T07:46:21.804Z,61.15
2019-02-17T07:47:21.775Z,61.59
2019-02-17T07:48:52.460Z,61.77
2019-02-17T07:49:52.443Z,60.68
2019-02-17T07:51:23.156Z,58.36
2019-02-17T07:52:23.116Z,57.59
2019-02-17T07:53:23.105Z,56.02
2019-02-17T07:54:23.104Z,55.69
2019-02-17T07:55:23.096Z,53.49
2019-02-17T07:56:23.095Z,53.46
2019-02-17T07:57:23.058Z,51.67
2019-02-17T07:58:23.055Z,51.50
2019-02-17T07:59:23.041Z,51.86
2019-02-17T08:00:23.033Z,51.37
2019-02-17T08:01:23.030Z,52.83
2019-02-17T08:02:23.014Z,52.03
2019-02-17T08:03:23.003Z,53.18
2019-02-17T08:04:23.182Z,53.08
2019-02-17T08:05:22.979Z,53.51
2019-02-17T08:06:22.990Z,55.05
2019-02-17T08:07:22.965Z,54.08
2019-02-17T08:08:22.961Z,52.72
2019-02-17T08:09:22.944Z,51.86
2019-02-17T08:11:03.478Z,51.34
2019-02-17T08:11:54.589Z,50.68
2019-02-17T08:13:24.684Z,50.50
2019-02-17T08:14:24.241Z,49.96
2019-02-17T08:15:54.938Z,50.32
2019-02-17T08:16:54.918Z,51.39
2019-02-17T08:18:25.619Z,51.62
2019-02-17T08:19:25.594Z,49.95
2019-02-17T08:20:25.584Z,49.76
2019-02-17T08:21:25.574Z,49.00
2019-02-17T08:22:25.640Z,48.67
2019-02-17T08:23:25.546Z,48.14
2019-02-17T08:24:25.547Z,47.20
2019-02-17T08:25:25.520Z,46.56
2019-02-17T08:26:25.515Z,45.98
2019-02-17T08:27:25.507Z,45.30
2019-02-17T08:28:25.495Z,45.45
2019-02-17T08:29:25.524Z,46.14
2019-02-17T08:30:25.484Z,45.68
2019-02-17T08:31:25.477Z,46.33
2019-02-17T08:32:25.466Z,42.98
2019-02-17T08:33:25.455Z,43.26
2019-02-17T08:34:25.444Z,42.86
2019-02-17T08:35:25.425Z,42.00
2019-02-17T08:36:25.425Z,41.42
2019-02-17T08:37:25.400Z,42.49
2019-02-17T08:38:25.413Z,43.24
2019-02-17T08:39:25.395Z,43.14
2019-02-17T08:40:25.364Z,44.31
2019-02-17T08:41:25.364Z,43.84
2019-02-17T08:42:25.373Z,43.12
2019-02-17T08:43:25.340Z,42.59
2019-02-17T08:44:25.336Z,42.55
2019-02-17T08:45:25.318Z,41.93
2019-02-17T08:46:25.310Z,41.09
2019-02-17T08:47:25.295Z,40.94
2019-02-17T08:48:25.279Z,40.43
2019-02-17T08:49:25.282Z,42.23
2019-02-17T08:50:25.261Z,41.31
2019-02-17T08:51:25.273Z,42.17
2019-02-17T08:52:25.298Z,42.13
2019-02-17T08:53:25.231Z,41.21
2019-02-17T08:54:25.216Z,41.28
2019-02-17T08:55:25.204Z,40.63
2019-02-17T08:56:25.192Z,39.37
2019-02-17T08:57:25.197Z,39.36
2019-02-17T08:58:25.175Z,38.93
2019-02-17T08:59:25.167Z,39.97
2019-02-17T09:00:25.152Z,39.73
2019-02-17T09:01:25.163Z,39.21
2019-02-17T09:02:25.128Z,40.38
2019-02-17T09:03:25.117Z,40.69
2019-02-17T09:04:25.111Z,40.56
2019-02-17T09:05:25.122Z,39.96
2019-02-17T09:06:25.091Z,40.67
2019-02-17T09:07:25.093Z,41.30
2019-02-17T09:08:25.092Z,41.09
2019-02-17T09:09:25.068Z,40.89
2019-02-17T09:10:25.054Z,41.62
2019-02-17T09:11:25.033Z,41.38
2019-02-17T09:12:25.035Z,39.82
2019-02-17T09:13:25.010Z,40.20
2019-02-17T09:14:25.017Z,39.98
2019-02-17T09:15:24.998Z,38.65
2019-02-17T09:16:24.985Z,39.97
2019-02-17T09:17:24.976Z,39.17
2019-02-17T09:18:24.964Z,40.53
2019-02-17T09:19:24.965Z,39.82
2019-02-17T09:20:24.966Z,41.50
2019-02-17T09:21:24.930Z,41.91
2019-02-17T09:22:24.926Z,42.98
2019-02-17T09:23:24.913Z,44.06
2019-02-17T09:24:24.901Z,44.97
2019-02-17T09:25:24.888Z,43.84
2019-02-17T09:26:24.876Z,43.51
2019-02-17T09:27:24.877Z,44.20
2019-02-17T09:28:24.880Z,43.38
2019-02-17T09:29:24.875Z,43.26
2019-02-17T09:30:24.859Z,43.16
2019-02-17T09:31:24.835Z,43.14
2019-02-17T09:32:24.818Z,42.74
2019-02-17T09:33:24.847Z,42.17
2019-02-17T09:34:24.797Z,45.38
2019-02-17T09:35:24.782Z,44.45
2019-02-17T09:36:24.773Z,44.87
2019-02-17T09:37:24.770Z,44.95
2019-02-17T09:38:24.777Z,44.95
2019-02-17T09:39:24.756Z,44.28
2019-02-17T09:40:24.764Z,43.24
2019-02-17T09:41:24.730Z,42.45
2019-02-17T09:42:24.707Z,43.14
2019-02-17T09:43:24.713Z,42.61
2019-02-17T09:44:24.707Z,41.86
2019-02-17T09:45:24.688Z,40.02
2019-02-17T09:46:24.697Z,40.33
2019-02-17T09:47:24.667Z,39.70
2019-02-17T09:48:24.654Z,39.88
2019-02-17T09:49:24.655Z,40.29
2019-02-17T09:50:24.639Z,39.78
2019-02-17T09:51:24.622Z,39.88
2019-02-17T09:52:24.606Z,40.47
2019-02-17T09:53:24.598Z,39.95
2019-02-17T09:54:24.593Z,38.84
2019-02-17T09:55:24.585Z,40.00
2019-02-17T09:56:24.583Z,39.92
2019-02-17T09:57:24.564Z,42.74
2019-02-17T09:58:24.545Z,42.05
2019-02-17T09:59:24.536Z,43.49
2019-02-17T10:00:24.525Z,45.20
2019-02-17T10:01:24.519Z,46.15
2019-02-17T10:02:26.780Z,47.28
2019-02-17T10:03:24.487Z,46.97
2019-02-17T10:04:24.488Z,47.36
2019-02-17T10:05:24.470Z,46.24
2019-02-17T10:06:24.465Z,45.45
2019-02-17T10:07:24.458Z,45.94
2019-02-17T10:08:24.458Z,46.70
2019-02-17T10:09:24.431Z,46.50
2019-02-17T10:10:24.422Z,45.26
2019-02-17T10:11:24.402Z,45.34
2019-02-17T10:12:24.399Z,44.73
2019-02-17T10:13:24.402Z,44.83
2019-02-17T10:14:24.406Z,44.02
2019-02-17T10:15:24.370Z,43.61
2019-02-17T10:16:24.530Z,43.71
2019-02-17T10:17:24.349Z,45.06
2019-02-17T10:18:24.337Z,46.30
2019-02-17T10:19:24.333Z,45.46
2019-02-17T10:20:24.630Z,45.24
2019-02-17T10:21:24.306Z,45.03
2019-02-17T10:22:24.336Z,44.10
2019-02-17T10:23:24.290Z,44.91
2019-02-17T10:24:24.607Z,44.18
2019-02-17T10:25:24.277Z,43.65
2019-02-17T10:26:24.254Z,42.96
2019-02-17T10:27:24.242Z,43.71
2019-02-17T10:28:24.241Z,45.15
2019-02-17T10:29:24.231Z,45.28
2019-02-17T10:30:24.210Z,46.32
2019-02-17T10:31:24.225Z,45.48
2019-02-17T10:32:24.190Z,46.01
2019-02-17T10:33:24.177Z,45.79
2019-02-17T10:34:24.169Z,47.56
2019-02-17T10:35:24.175Z,47.44
2019-02-17T10:36:24.153Z,47.31
2019-02-17T10:37:24.146Z,45.50
2019-02-17T10:38:24.132Z,46.77
2019-02-17T10:39:24.116Z,47.58
2019-02-17T10:40:24.105Z,47.13
2019-02-17T10:41:24.093Z,47.11
2019-02-17T10:42:24.097Z,45.48
2019-02-17T10:43:24.100Z,45.56
2019-02-17T10:44:24.062Z,45.34
2019-02-17T10:45:24.059Z,45.71
2019-02-17T10:46:24.042Z,47.26
2019-02-17T10:47:24.057Z,47.16
2019-02-17T10:48:24.023Z,47.34
2019-02-17T10:49:24.033Z,46.01
2019-02-17T10:50:24.039Z,45.06
2019-02-17T10:51:26.358Z,45.14
2019-02-17T10:52:23.997Z,45.52
2019-02-17T10:53:23.967Z,43.67
2019-02-17T10:54:23.976Z,44.06
2019-02-17T10:55:23.945Z,43.69
2019-02-17T10:56:23.933Z,43.77
2019-02-17T10:57:23.929Z,43.49
2019-02-17T10:58:23.947Z,44.20
2019-02-17T10:59:23.907Z,44.18
2019-02-17T11:00:23.902Z,43.67
2019-02-17T11:01:23.888Z,43.59
2019-02-17T11:02:23.871Z,45.54
2019-02-17T11:03:23.859Z,45.44
2019-02-17T11:04:23.853Z,45.15
2019-02-17T11:05:23.863Z,45.67
2019-02-17T11:06:23.833Z,45.75
2019-02-17T11:07:23.818Z,45.72
2019-02-17T11:08:23.811Z,45.01
2019-02-17T11:09:23.897Z,44.32
2019-02-17T11:10:23.796Z,45.83
2019-02-17T11:11:23.783Z,43.47
2019-02-17T11:12:23.758Z,45.11
2019-02-17T11:13:23.751Z,45.11
2019-02-17T11:14:23.816Z,45.60
2019-02-17T11:15:23.775Z,43.85
2019-02-17T11:16:23.728Z,43.24
2019-02-17T11:17:23.714Z,44.81
2019-02-17T11:18:23.695Z,45.24
2019-02-17T11:19:23.691Z,44.97
2019-02-17T11:20:23.674Z,46.91
2019-02-17T11:21:23.667Z,45.56
2019-02-17T11:22:23.662Z,45.75
2019-02-17T11:23:23.694Z,45.76
2019-02-17T11:24:23.637Z,46.09
2019-02-17T11:25:23.625Z,46.42
2019-02-17T11:26:23.617Z,47.42
2019-02-17T11:27:23.606Z,46.70
2019-02-17T11:28:23.606Z,46.75
2019-02-17T11:29:23.578Z,47.64
2019-02-17T11:30:23.572Z,47.11
2019-02-17T11:31:23.735Z,47.06
2019-02-17T11:32:23.545Z,45.72
2019-02-17T11:33:23.555Z,45.75
2019-02-17T11:34:23.539Z,45.32
2019-02-17T11:35:23.522Z,45.32
2019-02-17T11:36:23.508Z,44.28
2019-02-17T11:37:23.498Z,44.48
2019-02-17T11:38:23.534Z,45.54
2019-02-17T11:39:23.501Z,45.34
2019-02-17T11:40:23.489Z,46.05
2019-02-17T11:41:23.463Z,46.15
2019-02-17T11:42:23.443Z,45.24
2019-02-17T11:43:23.440Z,46.45
2019-02-17T11:44:23.419Z,45.40
2019-02-17T11:45:23.419Z,45.50
2019-02-17T11:46:23.398Z,45.29
2019-02-17T11:47:23.392Z,45.17
2019-02-17T11:48:23.391Z,44.79
2019-02-17T11:49:23.357Z,44.79
2019-02-17T11:50:23.355Z,45.62
2019-02-17T11:51:23.402Z,45.29
2019-02-17T11:52:23.329Z,45.68
2019-02-17T11:53:23.322Z,44.56
2019-02-17T11:54:23.305Z,45.15
2019-02-17T11:55:23.307Z,43.99
2019-02-17T11:56:23.343Z,44.50
2019-02-17T11:57:23.292Z,43.87
2019-02-17T11:58:23.268Z,43.20
2019-02-17T11:59:23.266Z,43.38
2019-02-17T12:00:23.286Z,42.86
2019-02-17T12:01:23.233Z,42.46
2019-02-17T12:02:25.367Z,43.26
2019-02-17T12:03:23.211Z,43.26
2019-02-17T12:04:23.211Z,43.29
2019-02-17T12:05:23.197Z,43.10
2019-02-17T12:06:23.172Z,44.04
2019-02-17T12:07:23.171Z,43.71
2019-02-17T12:08:23.186Z,44.32
2019-02-17T12:09:23.142Z,43.71
2019-02-17T12:10:23.139Z,43.41
2019-02-17T12:11:23.142Z,43.32
2019-02-17T12:12:23.119Z,44.44
2019-02-17T12:13:23.112Z,44.04
2019-02-17T12:14:23.091Z,44.36
2019-02-17T12:15:23.081Z,44.48
2019-02-17T12:16:23.069Z,46.23
2019-02-17T12:17:23.073Z,46.23
2019-02-17T12:18:23.046Z,45.50
2019-02-17T12:19:23.059Z,45.50
2019-02-17T12:20:23.031Z,45.29
2019-02-17T12:21:23.014Z,45.20
2019-02-17T12:22:23.017Z,45.28
2019-02-17T12:23:23.037Z,45.78
2019-02-17T12:24:22.986Z,45.48
2019-02-17T12:25:22.970Z,45.17
2019-02-17T12:26:22.975Z,44.16
2019-02-17T12:27:22.974Z,44.99
2019-02-17T12:28:22.944Z,45.60
2019-02-17T12:29:22.927Z,45.60
2019-02-17T12:30:22.923Z,44.97
2019-02-17T12:31:22.907Z,44.36
2019-02-17T12:32:22.905Z,43.53
2019-02-17T12:33:22.886Z,44.13
2019-02-17T12:34:22.882Z,43.30
2019-02-17T12:35:23.057Z,43.10
2019-02-17T12:36:22.864Z,43.61
2019-02-17T12:37:22.841Z,42.88
2019-02-17T12:38:22.860Z,43.61
2019-02-17T12:39:22.830Z,42.90
2019-02-17T12:40:22.819Z,42.92
2019-02-17T12:41:23.992Z,43.73
2019-02-17T12:42:22.779Z,43.65
2019-02-17T12:43:53.901Z,44.06
2019-02-17T12:44:53.611Z,44.67
2019-02-17T12:46:24.201Z,43.75
2019-02-17T12:47:24.170Z,44.59
2019-02-17T12:48:54.946Z,45.50
2019-02-17T12:49:54.915Z,44.46
2019-02-17T12:51:25.612Z,44.59
2019-02-17T12:52:25.588Z,44.89
2019-02-17T12:53:56.304Z,44.08
2019-02-17T12:54:56.260Z,44.28
2019-02-17T12:56:26.426Z,45.90
2019-02-17T12:57:26.437Z,44.99
2019-02-17T12:58:57.975Z,44.77
2019-02-17T12:59:57.112Z,44.77
2019-02-17T13:01:27.965Z,45.58
2019-02-17T13:02:27.855Z,44.54
2019-02-17T13:03:58.598Z,43.93
2019-02-17T13:04:58.571Z,44.26
2019-02-17T13:06:44.706Z,44.87
2019-02-17T13:07:44.673Z,44.28
2019-02-17T13:09:15.390Z,43.55
2019-02-17T13:10:15.350Z,44.01
2019-02-17T13:11:48.510Z,43.51
2019-02-17T13:12:46.098Z,44.01
2019-02-17T13:14:16.730Z,44.44
2019-02-17T13:15:16.714Z,44.06
2019-02-17T13:16:47.402Z,43.75
2019-02-17T13:17:47.345Z,43.43
2019-02-17T13:19:17.499Z,43.75
2019-02-17T13:20:17.468Z,44.85
2019-02-17T13:21:48.307Z,45.15
2019-02-17T13:22:48.304Z,44.67
2019-02-17T13:24:19.404Z,45.28
2019-02-17T13:25:18.949Z,45.07
2019-02-17T13:26:49.665Z,45.98
2019-02-17T13:27:49.770Z,45.90
2019-02-17T13:29:20.726Z,45.90
2019-02-17T13:30:20.314Z,46.64
2019-02-17T13:31:51.028Z,45.62
2019-02-17T13:32:50.998Z,45.72
2019-02-17T13:34:22.002Z,45.72
2019-02-17T13:35:21.708Z,46.23
2019-02-17T13:36:52.412Z,46.15
2019-02-17T13:37:52.364Z,46.05
2019-02-17T13:39:23.151Z,47.06
2019-02-17T13:40:23.132Z,46.76
2019-02-17T13:41:53.853Z,47.78
2019-02-17T13:42:53.825Z,47.67
2019-02-17T13:43:53.816Z,47.67
2019-02-17T13:44:53.811Z,47.17
2019-02-17T13:45:53.793Z,47.67
2019-02-17T13:46:53.787Z,47.47
2019-02-17T13:47:53.803Z,47.80
2019-02-17T13:48:53.770Z,47.06
2019-02-17T13:49:53.771Z,47.58
2019-02-17T13:50:53.734Z,47.58
2019-02-17T13:51:53.733Z,47.47
2019-02-17T13:52:53.729Z,47.47
2019-02-17T13:53:53.717Z,47.58
2019-02-17T13:54:53.696Z,47.47
2019-02-17T13:55:53.683Z,47.47
2019-02-17T13:56:53.672Z,47.98
2019-02-17T13:57:53.675Z,47.58
2019-02-17T13:58:53.679Z,47.47
2019-02-17T13:59:53.645Z,47.58
2019-02-17T14:00:53.621Z,47.47
2019-02-17T14:01:53.619Z,47.37
2019-02-17T14:02:53.619Z,47.27
2019-02-17T14:03:53.611Z,47.47
2019-02-17T14:04:53.590Z,47.70
2019-02-17T14:06:24.268Z,48.00
2019-02-17T14:07:24.247Z,47.67
2019-02-17T14:08:54.931Z,48.61
2019-02-17T14:09:54.906Z,48.82
2019-02-17T14:10:54.905Z,49.22
2019-02-17T14:11:54.906Z,48.59
2019-02-17T14:12:54.877Z,48.90
2019-02-17T14:13:54.878Z,49.30
2019-02-17T14:14:54.868Z,48.59
2019-02-17T14:16:25.548Z,49.00
2019-02-17T14:17:25.521Z,49.02
2019-02-17T14:18:56.606Z,48.92
2019-02-17T14:19:56.203Z,49.94
2019-02-17T14:21:26.879Z,48.92
2019-02-17T14:22:26.839Z,48.72
2019-02-17T14:23:57.535Z,48.92
2019-02-17T14:24:57.509Z,49.43
2019-02-17T14:26:28.276Z,49.53
2019-02-17T14:27:28.200Z,49.96
2019-02-17T14:28:58.851Z,49.94
2019-02-17T14:29:58.863Z,49.94
2019-02-17T14:31:29.526Z,49.84
2019-02-17T14:32:29.506Z,49.53
2019-02-17T14:34:00.210Z,49.33
2019-02-17T14:35:00.229Z,49.73
2019-02-17T14:36:30.874Z,50.55
2019-02-17T14:37:30.854Z,50.14
2019-02-17T14:38:30.845Z,49.43
2019-02-17T14:39:30.847Z,49.84
2019-02-17T14:40:30.826Z,49.53
2019-02-17T14:41:30.821Z,49.63
2019-02-17T14:42:30.805Z,49.53
2019-02-17T14:43:30.790Z,49.43
2019-02-17T14:44:30.774Z,49.63
2019-02-17T14:45:30.775Z,49.43
2019-02-17T14:46:30.759Z,49.22
2019-02-17T14:47:30.751Z,49.53
2019-02-17T14:48:30.742Z,49.65
2019-02-17T14:49:30.766Z,49.53
2019-02-17T14:50:30.718Z,49.12